sensor_id;sensor_type;location;lat;lon;timestamp;temperature;humidity
39657;DHT22;25337;51.478;7.510;2023-11-21T00:00:18;5.60;99.90
39657;DHT22;25337;51.478;7.510;2023-11-21T00:02:44;5.60;99.90
39657;DHT22;25337;51.478;7.510;2023-11-21T00:05:12;5.60;99.90
39657;DHT22;25337;51.478;7.510;2023-11-21T00:07:39;5.70;99.90
39657;DHT22;25337;51.478;7.510;2023-11-21T00:10:06;5.60;99.90
39657;DHT22;25337;51.478;7.510;2023-11-21T00:12:32;5.60;99.90
39657;DHT22;25337;51.478;7.510;2023-11-21T00:14:59;5.50;99.90
39657;DHT22;25337;51.478;7.510;2023-11-21T00:17:25;5.50;99.90
39657;DHT22;25337;51.478;7.510;2023-11-21T00:19:50;5.50;99.90
39657;DHT22;25337;51.478;7.510;2023-11-21T00:22:19;5.50;99.90
39657;DHT22;25337;51.478;7.510;2023-11-21T00:24:45;5.50;99.90
39657;DHT22;25337;51.478;7.510;2023-11-21T00:27:11;5.50;99.90
39657;DHT22;25337;51.478;7.510;2023-11-21T00:29:37;5.50;99.90
39657;DHT22;25337;51.478;7.510;2023-11-21T00:32:04;5.50;99.90
39657;DHT22;25337;51.478;7.510;2023-11-21T00:34:31;5.60;99.90
39657;DHT22;25337;51.478;7.510;2023-11-21T00:36:57;5.60;99.90
39657;DHT22;25337;51.478;7.510;2023-11-21T00:39:22;5.70;99.90
39657;DHT22;25337;51.478;7.510;2023-11-21T00:41:48;5.70;99.90
39657;DHT22;25337;51.478;7.510;2023-11-21T00:44:14;5.80;99.90
39657;DHT22;25337;51.478;7.510;2023-11-21T00:46:39;5.80;99.90
39657;DHT22;25337;51.478;7.510;2023-11-21T00:49:05;5.90;99.90
39657;DHT22;25337;51.478;7.510;2023-11-21T00:51:30;5.90;99.90
39657;DHT22;25337;51.478;7.510;2023-11-21T00:53:56;5.90;99.90
39657;DHT22;25337;51.478;7.510;2023-11-21T00:56:23;5.90;99.90
39657;DHT22;25337;51.478;7.510;2023-11-21T00:58:49;5.90;99.90
39657;DHT22;25337;51.478;7.510;2023-11-21T01:01:18;5.90;99.90
39657;DHT22;25337;51.478;7.510;2023-11-21T01:03:46;5.90;99.90
39657;DHT22;25337;51.478;7.510;2023-11-21T01:06:11;5.90;99.90
39657;DHT22;25337;51.478;7.510;2023-11-21T01:08:37;5.90;99.90
39657;DHT22;25337;51.478;7.510;2023-11-21T01:11:03;5.90;99.90
39657;DHT22;25337;51.478;7.510;2023-11-21T01:13:30;5.90;99.90
39657;DHT22;25337;51.478;7.510;2023-11-21T01:15:56;5.90;99.90
39657;DHT22;25337;51.478;7.510;2023-11-21T01:18:21;5.90;99.90
39657;DHT22;25337;51.478;7.510;2023-11-21T01:20:47;5.90;99.90
39657;DHT22;25337;51.478;7.510;2023-11-21T01:23:13;5.90;99.90
39657;DHT22;25337;51.478;7.510;2023-11-21T01:25:41;5.90;99.90
39657;DHT22;25337;51.478;7.510;2023-11-21T01:28:07;5.90;99.90
39657;DHT22;25337;51.478;7.510;2023-11-21T01:30:32;5.90;99.90
39657;DHT22;25337;51.478;7.510;2023-11-21T01:32:58;5.80;99.90
39657;DHT22;25337;51.478;7.510;2023-11-21T01:35:24;5.80;99.90
39657;DHT22;25337;51.478;7.510;2023-11-21T01:37:50;5.90;99.90
39657;DHT22;25337;51.478;7.510;2023-11-21T01:40:16;5.80;99.90
39657;DHT22;25337;51.478;7.510;2023-11-21T01:42:42;5.80;99.90
39657;DHT22;25337;51.478;7.510;2023-11-21T01:45:12;5.80;99.90
39657;DHT22;25337;51.478;7.510;2023-11-21T01:47:40;5.80;99.90
39657;DHT22;25337;51.478;7.510;2023-11-21T01:50:08;5.80;99.90
39657;DHT22;25337;51.478;7.510;2023-11-21T01:52:37;5.80;99.90
39657;DHT22;25337;51.478;7.510;2023-11-21T01:55:05;5.80;99.90
39657;DHT22;25337;51.478;7.510;2023-11-21T01:57:31;5.80;99.90
39657;DHT22;25337;51.478;7.510;2023-11-21T01:59:58;5.80;99.90
39657;DHT22;25337;51.478;7.510;2023-11-21T02:02:46;5.90;99.90
39657;DHT22;25337;51.478;7.510;2023-11-21T02:05:14;5.90;99.90
39657;DHT22;25337;51.478;7.510;2023-11-21T02:07:41;6.00;99.90
39657;DHT22;25337;51.478;7.510;2023-11-21T02:10:08;6.00;99.90
39657;DHT22;25337;51.478;7.510;2023-11-21T02:12:34;6.00;99.90
39657;DHT22;25337;51.478;7.510;2023-11-21T02:15:02;5.90;99.90
39657;DHT22;25337;51.478;7.510;2023-11-21T02:17:30;5.90;99.90
39657;DHT22;25337;51.478;7.510;2023-11-21T02:19:57;5.90;99.90
39657;DHT22;25337;51.478;7.510;2023-11-21T02:22:26;5.90;99.90
39657;DHT22;25337;51.478;7.510;2023-11-21T02:24:54;5.90;99.90
39657;DHT22;25337;51.478;7.510;2023-11-21T02:27:19;5.90;99.90
39657;DHT22;25337;51.478;7.510;2023-11-21T02:29:47;5.80;99.90
39657;DHT22;25337;51.478;7.510;2023-11-21T02:32:13;5.80;99.90
39657;DHT22;25337;51.478;7.510;2023-11-21T02:34:42;5.80;99.90
39657;DHT22;25337;51.478;7.510;2023-11-21T02:37:09;5.80;99.90
39657;DHT22;25337;51.478;7.510;2023-11-21T02:39:35;5.70;99.90
39657;DHT22;25337;51.478;7.510;2023-11-21T02:42:01;5.70;99.90
39657;DHT22;25337;51.478;7.510;2023-11-21T02:44:26;5.70;99.90
39657;DHT22;25337;51.478;7.510;2023-11-21T02:46:52;5.70;99.90
39657;DHT22;25337;51.478;7.510;2023-11-21T02:49:17;5.60;99.90
39657;DHT22;25337;51.478;7.510;2023-11-21T02:51:43;5.60;99.90
39657;DHT22;25337;51.478;7.510;2023-11-21T02:54:09;5.60;99.90
39657;DHT22;25337;51.478;7.510;2023-11-21T02:56:34;5.70;99.90
39657;DHT22;25337;51.478;7.510;2023-11-21T02:59:00;5.70;99.90
39657;DHT22;25337;51.478;7.510;2023-11-21T03:01:26;5.70;99.90
39657;DHT22;25337;51.478;7.510;2023-11-21T03:03:52;5.80;99.90
39657;DHT22;25337;51.478;7.510;2023-11-21T03:06:19;5.90;99.90
39657;DHT22;25337;51.478;7.510;2023-11-21T03:08:44;6.00;99.90
39657;DHT22;25337;51.478;7.510;2023-11-21T03:11:10;6.10;99.90
39657;DHT22;25337;51.478;7.510;2023-11-21T03:13:36;6.10;99.90
39657;DHT22;25337;51.478;7.510;2023-11-21T03:16:01;6.20;99.90
39657;DHT22;25337;51.478;7.510;2023-11-21T03:18:27;6.30;99.90
39657;DHT22;25337;51.478;7.510;2023-11-21T03:20:55;6.30;99.90
39657;DHT22;25337;51.478;7.510;2023-11-21T03:23:21;6.40;99.90
39657;DHT22;25337;51.478;7.510;2023-11-21T03:25:46;6.30;99.90
39657;DHT22;25337;51.478;7.510;2023-11-21T03:28:12;6.30;99.90
39657;DHT22;25337;51.478;7.510;2023-11-21T03:30:38;6.30;99.90
39657;DHT22;25337;51.478;7.510;2023-11-21T03:33:03;6.30;99.90
39657;DHT22;25337;51.478;7.510;2023-11-21T03:35:29;6.40;99.90
39657;DHT22;25337;51.478;7.510;2023-11-21T03:37:55;6.40;99.90
39657;DHT22;25337;51.478;7.510;2023-11-21T03:40:21;6.30;99.90
39657;DHT22;25337;51.478;7.510;2023-11-21T03:42:47;6.30;99.90
39657;DHT22;25337;51.478;7.510;2023-11-21T03:45:15;6.20;99.90
39657;DHT22;25337;51.478;7.510;2023-11-21T03:47:41;6.30;99.90
39657;DHT22;25337;51.478;7.510;2023-11-21T03:50:10;6.20;99.90
39657;DHT22;25337;51.478;7.510;2023-11-21T03:52:37;6.20;99.90
39657;DHT22;25337;51.478;7.510;2023-11-21T03:55:03;6.20;99.90
39657;DHT22;25337;51.478;7.510;2023-11-21T03:57:28;6.20;99.90
39657;DHT22;25337;51.478;7.510;2023-11-21T03:59:54;6.30;99.90
39657;DHT22;25337;51.478;7.510;2023-11-21T04:02:20;6.40;99.90
39657;DHT22;25337;51.478;7.510;2023-11-21T04:04:45;6.40;99.90
39657;DHT22;25337;51.478;7.510;2023-11-21T04:07:13;6.40;99.90
39657;DHT22;25337;51.478;7.510;2023-11-21T04:09:39;6.50;99.90
39657;DHT22;25337;51.478;7.510;2023-11-21T04:12:07;6.60;99.90
39657;DHT22;25337;51.478;7.510;2023-11-21T04:14:34;6.60;99.90
39657;DHT22;25337;51.478;7.510;2023-11-21T04:16:59;6.50;99.90
39657;DHT22;25337;51.478;7.510;2023-11-21T04:19:25;6.60;99.90
39657;DHT22;25337;51.478;7.510;2023-11-21T04:21:51;6.50;99.90
39657;DHT22;25337;51.478;7.510;2023-11-21T04:24:16;6.60;99.90
39657;DHT22;25337;51.478;7.510;2023-11-21T04:26:45;6.60;99.90
39657;DHT22;25337;51.478;7.510;2023-11-21T04:29:11;6.70;99.90
39657;DHT22;25337;51.478;7.510;2023-11-21T04:31:37;6.70;99.90
39657;DHT22;25337;51.478;7.510;2023-11-21T04:34:02;6.60;99.90
39657;DHT22;25337;51.478;7.510;2023-11-21T04:36:29;6.60;99.90
39657;DHT22;25337;51.478;7.510;2023-11-21T04:38:58;6.60;99.90
39657;DHT22;25337;51.478;7.510;2023-11-21T04:41:27;6.60;99.90
39657;DHT22;25337;51.478;7.510;2023-11-21T04:43:52;6.50;99.90
39657;DHT22;25337;51.478;7.510;2023-11-21T04:46:18;6.60;99.90
39657;DHT22;25337;51.478;7.510;2023-11-21T04:48:44;6.50;99.90
39657;DHT22;25337;51.478;7.510;2023-11-21T04:51:09;6.50;99.90
39657;DHT22;25337;51.478;7.510;2023-11-21T04:53:37;6.50;99.90
39657;DHT22;25337;51.478;7.510;2023-11-21T04:56:02;6.50;99.90
39657;DHT22;25337;51.478;7.510;2023-11-21T04:58:28;6.50;99.90
39657;DHT22;25337;51.478;7.510;2023-11-21T05:00:54;6.40;99.90
39657;DHT22;25337;51.478;7.510;2023-11-21T05:03:20;6.40;99.90
39657;DHT22;25337;51.478;7.510;2023-11-21T05:05:45;6.40;99.90
39657;DHT22;25337;51.478;7.510;2023-11-21T05:08:11;6.40;99.90
39657;DHT22;25337;51.478;7.510;2023-11-21T05:10:37;6.30;99.90
39657;DHT22;25337;51.478;7.510;2023-11-21T05:13:04;6.30;99.90
39657;DHT22;25337;51.478;7.510;2023-11-21T05:15:35;6.20;99.90
39657;DHT22;25337;51.478;7.510;2023-11-21T05:18:00;6.20;99.90
39657;DHT22;25337;51.478;7.510;2023-11-21T05:20:28;6.10;99.90
39657;DHT22;25337;51.478;7.510;2023-11-21T05:22:54;6.10;99.90
39657;DHT22;25337;51.478;7.510;2023-11-21T05:25:19;6.00;99.90
39657;DHT22;25337;51.478;7.510;2023-11-21T05:27:48;6.00;99.90
39657;DHT22;25337;51.478;7.510;2023-11-21T05:30:14;5.90;99.90
39657;DHT22;25337;51.478;7.510;2023-11-21T05:32:40;5.90;99.90
39657;DHT22;25337;51.478;7.510;2023-11-21T05:35:09;5.80;99.90
39657;DHT22;25337;51.478;7.510;2023-11-21T05:37:39;5.80;99.90
39657;DHT22;25337;51.478;7.510;2023-11-21T05:40:06;5.70;99.90
39657;DHT22;25337;51.478;7.510;2023-11-21T05:42:33;5.60;99.90
39657;DHT22;25337;51.478;7.510;2023-11-21T05:44:59;5.60;99.90
39657;DHT22;25337;51.478;7.510;2023-11-21T05:47:38;5.50;99.90
39657;DHT22;25337;51.478;7.510;2023-11-21T05:50:06;5.60;99.90
39657;DHT22;25337;51.478;7.510;2023-11-21T05:52:35;5.60;99.90
39657;DHT22;25337;51.478;7.510;2023-11-21T05:55:00;5.70;99.90
39657;DHT22;25337;51.478;7.510;2023-11-21T05:57:26;5.80;99.90
39657;DHT22;25337;51.478;7.510;2023-11-21T05:59:51;5.90;99.90
39657;DHT22;25337;51.478;7.510;2023-11-21T06:02:17;6.00;99.90
39657;DHT22;25337;51.478;7.510;2023-11-21T06:04:45;6.00;99.90
39657;DHT22;25337;51.478;7.510;2023-11-21T06:07:11;6.10;99.90
39657;DHT22;25337;51.478;7.510;2023-11-21T06:09:37;6.10;99.90
39657;DHT22;25337;51.478;7.510;2023-11-21T06:12:03;6.20;99.90
39657;DHT22;25337;51.478;7.510;2023-11-21T06:14:29;6.20;99.90
39657;DHT22;25337;51.478;7.510;2023-11-21T06:16:55;6.30;99.90
39657;DHT22;25337;51.478;7.510;2023-11-21T06:19:21;6.40;99.90
39657;DHT22;25337;51.478;7.510;2023-11-21T06:21:47;6.40;99.90
39657;DHT22;25337;51.478;7.510;2023-11-21T06:24:13;6.50;99.90
39657;DHT22;25337;51.478;7.510;2023-11-21T06:26:40;6.50;99.90
39657;DHT22;25337;51.478;7.510;2023-11-21T06:29:06;6.40;99.90
39657;DHT22;25337;51.478;7.510;2023-11-21T06:31:35;6.40;99.90
39657;DHT22;25337;51.478;7.510;2023-11-21T06:34:01;6.30;99.90
39657;DHT22;25337;51.478;7.510;2023-11-21T06:36:26;6.30;99.90
39657;DHT22;25337;51.478;7.510;2023-11-21T06:38:52;6.20;99.90
39657;DHT22;25337;51.478;7.510;2023-11-21T06:41:18;6.10;99.90
39657;DHT22;25337;51.478;7.510;2023-11-21T06:43:43;6.00;99.90
39657;DHT22;25337;51.478;7.510;2023-11-21T06:46:12;5.80;99.90
39657;DHT22;25337;51.478;7.510;2023-11-21T06:48:43;5.60;99.90
39657;DHT22;25337;51.478;7.510;2023-11-21T06:51:08;5.50;99.90
39657;DHT22;25337;51.478;7.510;2023-11-21T06:53:36;5.50;99.90
39657;DHT22;25337;51.478;7.510;2023-11-21T06:56:02;5.30;99.90
39657;DHT22;25337;51.478;7.510;2023-11-21T06:58:28;5.30;99.90
39657;DHT22;25337;51.478;7.510;2023-11-21T07:00:54;5.20;99.90
39657;DHT22;25337;51.478;7.510;2023-11-21T07:03:19;5.30;99.90
39657;DHT22;25337;51.478;7.510;2023-11-21T07:05:45;5.30;99.90
39657;DHT22;25337;51.478;7.510;2023-11-21T07:08:11;5.20;99.90
39657;DHT22;25337;51.478;7.510;2023-11-21T07:10:38;5.20;99.90
39657;DHT22;25337;51.478;7.510;2023-11-21T07:13:04;5.20;99.90
39657;DHT22;25337;51.478;7.510;2023-11-21T07:15:29;5.20;99.90
39657;DHT22;25337;51.478;7.510;2023-11-21T07:17:55;5.20;99.90
39657;DHT22;25337;51.478;7.510;2023-11-21T07:20:20;5.30;99.90
39657;DHT22;25337;51.478;7.510;2023-11-21T07:22:48;5.40;99.90
39657;DHT22;25337;51.478;7.510;2023-11-21T07:25:14;5.50;99.90
39657;DHT22;25337;51.478;7.510;2023-11-21T07:27:40;5.60;99.90
39657;DHT22;25337;51.478;7.510;2023-11-21T07:30:06;5.70;99.90
39657;DHT22;25337;51.478;7.510;2023-11-21T07:32:33;5.80;99.90
39657;DHT22;25337;51.478;7.510;2023-11-21T07:34:59;5.90;99.90
39657;DHT22;25337;51.478;7.510;2023-11-21T07:37:26;6.00;99.90
39657;DHT22;25337;51.478;7.510;2023-11-21T07:39:54;6.00;99.90
39657;DHT22;25337;51.478;7.510;2023-11-21T07:42:23;6.10;99.90
39657;DHT22;25337;51.478;7.510;2023-11-21T07:44:49;6.20;99.90
39657;DHT22;25337;51.478;7.510;2023-11-21T07:47:15;6.20;99.90
39657;DHT22;25337;51.478;7.510;2023-11-21T07:49:41;6.30;99.90
39657;DHT22;25337;51.478;7.510;2023-11-21T07:52:09;6.40;99.90
39657;DHT22;25337;51.478;7.510;2023-11-21T07:54:35;6.40;99.90
39657;DHT22;25337;51.478;7.510;2023-11-21T07:57:01;6.50;99.90
39657;DHT22;25337;51.478;7.510;2023-11-21T07:59:29;6.60;99.90
39657;DHT22;25337;51.478;7.510;2023-11-21T08:01:55;6.70;99.90
39657;DHT22;25337;51.478;7.510;2023-11-21T08:04:20;6.80;99.90
39657;DHT22;25337;51.478;7.510;2023-11-21T08:06:46;6.90;99.90
39657;DHT22;25337;51.478;7.510;2023-11-21T08:09:11;6.90;99.90
39657;DHT22;25337;51.478;7.510;2023-11-21T08:11:38;6.90;99.90
39657;DHT22;25337;51.478;7.510;2023-11-21T08:14:04;7.00;99.90
39657;DHT22;25337;51.478;7.510;2023-11-21T08:16:30;7.10;99.90
39657;DHT22;25337;51.478;7.510;2023-11-21T08:18:58;7.30;99.90
39657;DHT22;25337;51.478;7.510;2023-11-21T08:21:24;7.30;99.90
39657;DHT22;25337;51.478;7.510;2023-11-21T08:23:50;7.40;99.90
39657;DHT22;25337;51.478;7.510;2023-11-21T08:26:20;7.50;99.90
39657;DHT22;25337;51.478;7.510;2023-11-21T08:28:45;7.50;99.90
39657;DHT22;25337;51.478;7.510;2023-11-21T08:31:12;7.60;99.90
39657;DHT22;25337;51.478;7.510;2023-11-21T08:33:38;7.70;99.90
39657;DHT22;25337;51.478;7.510;2023-11-21T08:36:08;7.70;99.90
39657;DHT22;25337;51.478;7.510;2023-11-21T08:38:34;7.70;99.90
39657;DHT22;25337;51.478;7.510;2023-11-21T08:41:06;7.80;99.90
39657;DHT22;25337;51.478;7.510;2023-11-21T08:43:35;7.80;99.90
39657;DHT22;25337;51.478;7.510;2023-11-21T08:46:07;7.80;99.90
39657;DHT22;25337;51.478;7.510;2023-11-21T08:48:36;7.80;99.90
39657;DHT22;25337;51.478;7.510;2023-11-21T08:51:03;7.80;99.90
39657;DHT22;25337;51.478;7.510;2023-11-21T08:53:29;7.90;99.90
39657;DHT22;25337;51.478;7.510;2023-11-21T08:55:56;7.90;99.90
39657;DHT22;25337;51.478;7.510;2023-11-21T08:58:22;7.90;99.90
39657;DHT22;25337;51.478;7.510;2023-11-21T09:00:47;7.90;99.90
39657;DHT22;25337;51.478;7.510;2023-11-21T09:03:13;7.90;99.90
39657;DHT22;25337;51.478;7.510;2023-11-21T09:05:39;7.90;99.90
39657;DHT22;25337;51.478;7.510;2023-11-21T09:08:05;7.90;99.90
39657;DHT22;25337;51.478;7.510;2023-11-21T09:10:33;8.00;99.90
39657;DHT22;25337;51.478;7.510;2023-11-21T09:13:01;8.00;99.90
39657;DHT22;25337;51.478;7.510;2023-11-21T09:15:27;8.00;99.90
39657;DHT22;25337;51.478;7.510;2023-11-21T09:17:53;8.10;99.90
39657;DHT22;25337;51.478;7.510;2023-11-21T09:20:19;8.10;99.90
39657;DHT22;25337;51.478;7.510;2023-11-21T09:22:48;8.20;99.90
39657;DHT22;25337;51.478;7.510;2023-11-21T09:25:14;8.20;99.90
39657;DHT22;25337;51.478;7.510;2023-11-21T09:27:42;8.20;99.90
39657;DHT22;25337;51.478;7.510;2023-11-21T09:30:08;8.30;99.90
39657;DHT22;25337;51.478;7.510;2023-11-21T09:32:37;8.30;99.90
39657;DHT22;25337;51.478;7.510;2023-11-21T09:35:06;8.40;99.90
39657;DHT22;25337;51.478;7.510;2023-11-21T09:37:35;8.40;99.90
39657;DHT22;25337;51.478;7.510;2023-11-21T09:40:04;8.50;99.90
39657;DHT22;25337;51.478;7.510;2023-11-21T09:42:36;8.50;99.90
39657;DHT22;25337;51.478;7.510;2023-11-21T09:45:25;8.50;99.90
39657;DHT22;25337;51.478;7.510;2023-11-21T09:47:53;8.60;99.90
39657;DHT22;25337;51.478;7.510;2023-11-21T09:50:21;8.60;99.90
39657;DHT22;25337;51.478;7.510;2023-11-21T09:55:27;8.90;99.90
39657;DHT22;25337;51.478;7.510;2023-11-21T09:57:56;8.90;99.90
39657;DHT22;25337;51.478;7.510;2023-11-21T10:00:22;9.10;99.90
39657;DHT22;25337;51.478;7.510;2023-11-21T10:02:49;9.00;99.90
39657;DHT22;25337;51.478;7.510;2023-11-21T10:05:16;9.10;99.90
39657;DHT22;25337;51.478;7.510;2023-11-21T10:07:46;9.10;99.90
39657;DHT22;25337;51.478;7.510;2023-11-21T10:10:13;9.10;99.90
39657;DHT22;25337;51.478;7.510;2023-11-21T10:12:39;9.10;99.90
39657;DHT22;25337;51.478;7.510;2023-11-21T10:15:08;9.10;99.90
39657;DHT22;25337;51.478;7.510;2023-11-21T10:17:38;9.10;99.90
39657;DHT22;25337;51.478;7.510;2023-11-21T10:20:09;9.10;99.90
39657;DHT22;25337;51.478;7.510;2023-11-21T10:22:41;9.10;99.90
39657;DHT22;25337;51.478;7.510;2023-11-21T10:25:08;9.10;99.90
39657;DHT22;25337;51.478;7.510;2023-11-21T10:27:35;9.10;99.90
39657;DHT22;25337;51.478;7.510;2023-11-21T10:30:02;9.10;99.90
39657;DHT22;25337;51.478;7.510;2023-11-21T10:32:29;9.10;99.90
39657;DHT22;25337;51.478;7.510;2023-11-21T10:34:59;9.10;99.90
39657;DHT22;25337;51.478;7.510;2023-11-21T10:37:35;9.10;99.90
39657;DHT22;25337;51.478;7.510;2023-11-21T10:40:02;9.10;99.90
39657;DHT22;25337;51.478;7.510;2023-11-21T10:42:27;9.10;99.90
39657;DHT22;25337;51.478;7.510;2023-11-21T10:44:54;9.20;99.90
39657;DHT22;25337;51.478;7.510;2023-11-21T10:47:20;9.20;99.90
39657;DHT22;25337;51.478;7.510;2023-11-21T10:49:51;9.20;99.90
39657;DHT22;25337;51.478;7.510;2023-11-21T10:52:19;9.30;99.90
39657;DHT22;25337;51.478;7.510;2023-11-21T10:54:46;9.30;99.90
39657;DHT22;25337;51.478;7.510;2023-11-21T10:57:16;9.40;99.90
39657;DHT22;25337;51.478;7.510;2023-11-21T10:59:47;9.30;99.90
39657;DHT22;25337;51.478;7.510;2023-11-21T11:02:26;9.30;99.90
39657;DHT22;25337;51.478;7.510;2023-11-21T11:04:54;9.30;99.90
39657;DHT22;25337;51.478;7.510;2023-11-21T11:07:24;9.20;99.90
39657;DHT22;25337;51.478;7.510;2023-11-21T11:09:52;9.20;99.90
39657;DHT22;25337;51.478;7.510;2023-11-21T11:12:18;9.20;99.90
39657;DHT22;25337;51.478;7.510;2023-11-21T11:14:44;9.10;99.90
39657;DHT22;25337;51.478;7.510;2023-11-21T11:17:10;9.10;99.90
39657;DHT22;25337;51.478;7.510;2023-11-21T11:19:36;9.00;99.90
39657;DHT22;25337;51.478;7.510;2023-11-21T11:22:40;9.10;99.90
39657;DHT22;25337;51.478;7.510;2023-11-21T11:25:30;9.10;99.90
39657;DHT22;25337;51.478;7.510;2023-11-21T11:31:24;9.10;99.90
39657;DHT22;25337;51.478;7.510;2023-11-21T11:33:53;9.10;99.90
39657;DHT22;25337;51.478;7.510;2023-11-21T11:36:37;9.00;99.90
39657;DHT22;25337;51.478;7.510;2023-11-21T11:39:32;9.00;99.90
39657;DHT22;25337;51.478;7.510;2023-11-21T11:42:02;8.90;99.90
39657;DHT22;25337;51.478;7.510;2023-11-21T11:47:27;8.80;99.90
39657;DHT22;25337;51.478;7.510;2023-11-21T11:50:09;8.80;99.90
39657;DHT22;25337;51.478;7.510;2023-11-21T11:52:52;8.70;99.90
39657;DHT22;25337;51.478;7.510;2023-11-21T11:55:21;8.80;99.90
39657;DHT22;25337;51.478;7.510;2023-11-21T11:57:53;8.80;99.90
39657;DHT22;25337;51.478;7.510;2023-11-21T12:02:56;8.70;99.90
39657;DHT22;25337;51.478;7.510;2023-11-21T12:05:26;8.60;99.90
39657;DHT22;25337;51.478;7.510;2023-11-21T12:07:57;8.60;99.90
39657;DHT22;25337;51.478;7.510;2023-11-21T12:10:27;8.50;99.90
39657;DHT22;25337;51.478;7.510;2023-11-21T12:13:06;8.50;99.90
39657;DHT22;25337;51.478;7.510;2023-11-21T12:15:33;8.50;99.90
39657;DHT22;25337;51.478;7.510;2023-11-21T12:18:00;8.50;99.90
39657;DHT22;25337;51.478;7.510;2023-11-21T12:20:29;8.40;99.90
39657;DHT22;25337;51.478;7.510;2023-11-21T12:22:57;8.40;99.90
39657;DHT22;25337;51.478;7.510;2023-11-21T12:25:27;8.40;99.90
39657;DHT22;25337;51.478;7.510;2023-11-21T12:27:55;8.30;99.90
39657;DHT22;25337;51.478;7.510;2023-11-21T12:30:23;8.40;99.90
39657;DHT22;25337;51.478;7.510;2023-11-21T12:32:53;8.50;99.90
39657;DHT22;25337;51.478;7.510;2023-11-21T12:35:30;8.60;99.90
39657;DHT22;25337;51.478;7.510;2023-11-21T12:37:59;8.40;99.90
39657;DHT22;25337;51.478;7.510;2023-11-21T12:40:25;8.30;99.90
39657;DHT22;25337;51.478;7.510;2023-11-21T12:42:53;8.40;99.90
39657;DHT22;25337;51.478;7.510;2023-11-21T12:45:21;8.40;99.90
39657;DHT22;25337;51.478;7.510;2023-11-21T12:48:01;8.40;99.90
39657;DHT22;25337;51.478;7.510;2023-11-21T12:50:31;8.40;99.90
39657;DHT22;25337;51.478;7.510;2023-11-21T12:53:07;8.40;99.90
39657;DHT22;25337;51.478;7.510;2023-11-21T12:55:37;8.30;99.90
39657;DHT22;25337;51.478;7.510;2023-11-21T12:58:08;8.30;99.90
39657;DHT22;25337;51.478;7.510;2023-11-21T13:00:36;8.30;99.90
39657;DHT22;25337;51.478;7.510;2023-11-21T13:03:04;8.30;99.90
39657;DHT22;25337;51.478;7.510;2023-11-21T13:05:34;8.30;99.90
39657;DHT22;25337;51.478;7.510;2023-11-21T13:08:04;8.30;99.90
39657;DHT22;25337;51.478;7.510;2023-11-21T13:10:33;8.20;99.90
39657;DHT22;25337;51.478;7.510;2023-11-21T13:13:02;8.20;99.90
39657;DHT22;25337;51.478;7.510;2023-11-21T13:15:31;8.20;99.90
39657;DHT22;25337;51.478;7.510;2023-11-21T13:17:58;8.20;99.90
39657;DHT22;25337;51.478;7.510;2023-11-21T13:20:25;8.20;99.90
39657;DHT22;25337;51.478;7.510;2023-11-21T13:22:58;8.20;99.90
39657;DHT22;25337;51.478;7.510;2023-11-21T13:25:24;8.20;99.90
39657;DHT22;25337;51.478;7.510;2023-11-21T13:27:55;8.20;99.90
39657;DHT22;25337;51.478;7.510;2023-11-21T13:30:22;8.20;99.90
39657;DHT22;25337;51.478;7.510;2023-11-21T13:32:52;8.20;99.90
39657;DHT22;25337;51.478;7.510;2023-11-21T13:35:18;8.20;99.90
39657;DHT22;25337;51.478;7.510;2023-11-21T13:37:56;8.20;99.90
39657;DHT22;25337;51.478;7.510;2023-11-21T13:40:24;8.10;99.90
39657;DHT22;25337;51.478;7.510;2023-11-21T13:42:54;8.10;99.90
39657;DHT22;25337;51.478;7.510;2023-11-21T13:45:23;8.00;99.90
39657;DHT22;25337;51.478;7.510;2023-11-21T13:47:53;8.10;99.90
39657;DHT22;25337;51.478;7.510;2023-11-21T13:50:27;8.20;99.90
39657;DHT22;25337;51.478;7.510;2023-11-21T13:52:59;8.10;99.90
39657;DHT22;25337;51.478;7.510;2023-11-21T13:55:44;8.00;99.90
39657;DHT22;25337;51.478;7.510;2023-11-21T13:58:10;8.00;99.90
39657;DHT22;25337;51.478;7.510;2023-11-21T14:00:45;8.00;99.90
39657;DHT22;25337;51.478;7.510;2023-11-21T14:03:14;8.00;99.90
39657;DHT22;25337;51.478;7.510;2023-11-21T14:05:57;8.00;99.90
39657;DHT22;25337;51.478;7.510;2023-11-21T14:08:23;8.00;99.90
39657;DHT22;25337;51.478;7.510;2023-11-21T14:10:54;8.00;99.90
39657;DHT22;25337;51.478;7.510;2023-11-21T14:13:23;8.00;99.90
39657;DHT22;25337;51.478;7.510;2023-11-21T14:15:50;8.00;99.90
39657;DHT22;25337;51.478;7.510;2023-11-21T14:18:19;8.00;99.90
39657;DHT22;25337;51.478;7.510;2023-11-21T14:20:52;8.00;99.90
39657;DHT22;25337;51.478;7.510;2023-11-21T14:23:18;8.00;99.90
39657;DHT22;25337;51.478;7.510;2023-11-21T14:25:44;8.00;99.90
39657;DHT22;25337;51.478;7.510;2023-11-21T14:28:09;8.00;99.90
39657;DHT22;25337;51.478;7.510;2023-11-21T14:30:37;8.00;99.90
39657;DHT22;25337;51.478;7.510;2023-11-21T14:33:05;8.00;99.90
39657;DHT22;25337;51.478;7.510;2023-11-21T14:35:31;8.00;99.90
39657;DHT22;25337;51.478;7.510;2023-11-21T14:37:58;8.00;99.90
39657;DHT22;25337;51.478;7.510;2023-11-21T14:40:25;7.90;99.90
39657;DHT22;25337;51.478;7.510;2023-11-21T14:42:51;7.90;99.90
39657;DHT22;25337;51.478;7.510;2023-11-21T14:45:22;7.80;99.90
39657;DHT22;25337;51.478;7.510;2023-11-21T14:47:51;7.80;99.90
39657;DHT22;25337;51.478;7.510;2023-11-21T14:50:42;7.80;99.90
39657;DHT22;25337;51.478;7.510;2023-11-21T14:53:12;7.80;99.90
39657;DHT22;25337;51.478;7.510;2023-11-21T14:55:41;7.70;99.90
39657;DHT22;25337;51.478;7.510;2023-11-21T14:58:18;7.70;99.90
39657;DHT22;25337;51.478;7.510;2023-11-21T15:01:00;7.70;99.90
39657;DHT22;25337;51.478;7.510;2023-11-21T15:03:27;7.70;99.90
39657;DHT22;25337;51.478;7.510;2023-11-21T15:06:00;7.70;99.90
39657;DHT22;25337;51.478;7.510;2023-11-21T15:08:57;7.60;99.90
39657;DHT22;25337;51.478;7.510;2023-11-21T15:11:43;7.50;99.90
39657;DHT22;25337;51.478;7.510;2023-11-21T15:14:08;7.50;99.90
39657;DHT22;25337;51.478;7.510;2023-11-21T15:16:36;7.50;99.90
39657;DHT22;25337;51.478;7.510;2023-11-21T15:19:06;7.40;99.90
39657;DHT22;25337;51.478;7.510;2023-11-21T15:21:31;7.50;99.90
39657;DHT22;25337;51.478;7.510;2023-11-21T15:23:59;7.40;99.90
39657;DHT22;25337;51.478;7.510;2023-11-21T15:26:25;7.40;99.90
39657;DHT22;25337;51.478;7.510;2023-11-21T15:28:51;7.40;99.90
39657;DHT22;25337;51.478;7.510;2023-11-21T15:31:17;7.30;99.90
39657;DHT22;25337;51.478;7.510;2023-11-21T15:33:47;7.30;99.90
39657;DHT22;25337;51.478;7.510;2023-11-21T15:36:13;7.30;99.90
39657;DHT22;25337;51.478;7.510;2023-11-21T15:38:40;7.30;99.90
39657;DHT22;25337;51.478;7.510;2023-11-21T15:41:05;7.30;99.90
39657;DHT22;25337;51.478;7.510;2023-11-21T15:43:34;7.20;99.90
39657;DHT22;25337;51.478;7.510;2023-11-21T15:45:59;7.20;99.90
39657;DHT22;25337;51.478;7.510;2023-11-21T15:48:27;7.00;99.90
39657;DHT22;25337;51.478;7.510;2023-11-21T15:50:53;7.00;99.90
39657;DHT22;25337;51.478;7.510;2023-11-21T15:53:22;7.00;99.90
39657;DHT22;25337;51.478;7.510;2023-11-21T15:55:48;6.90;99.90
39657;DHT22;25337;51.478;7.510;2023-11-21T15:58:16;6.80;99.90
39657;DHT22;25337;51.478;7.510;2023-11-21T16:00:42;6.80;99.90